Cuyahoga — CFG6460 — position and weather

sailwx.info

Track history (hours):
 
Tides and Currents Weather Stations Pressure Air Temp Water Temp Dewpoint Dewpoint Depression Visibility Wind Speed Wind Dir Waves Ship Positions

Cuyahoga

Last reported at 2017-Dec-02 06:08 UTC. Time now 2018-Feb-18 18:24 UTC.
Position N 45°19' W 083°18'.
Warning: this ship's position is months out of date.

Length 189 m; draft 6.6 m.

Type: Cargo ship. MMSI: 316004910.

Date/timePositionNaut miles runAvg speedWind from/ knotsBaromVisibWave heightAir tempDewpointWater temp
2017-Dec-02 06:08N 45°19' W 083°18'211.2
2017-Dec-02 05:58N 45°21' W 083°19'511.3
2017-Dec-02 05:30N 45°24' W 083°25'611.3
2017-Dec-02 05:00N 45°28' W 083°31'611.2
2017-Dec-02 04:30N 45°32' W 083°37'611.2
2017-Dec-02 04:00N 45°36' W 083°43'611.2
2017-Dec-02 03:30N 45°39' W 083°49'27 2.9
2017-Dec-01 18:01N 45°59' W 084°16'0 0.0
2017-Dec-01 18:00N 45°59' W 084°16'10 4.6
2017-Dec-01 15:46N 45°51' W 084°25'311.9
2017-Dec-01 15:30N 45°51' W 084°30'611.0
2017-Dec-01 15:00N 45°50' W 084°38'510.6
2017-Dec-01 14:30N 45°49' W 084°45'611.7
2017-Dec-01 14:00N 45°50' W 084°53'612.0
2017-Dec-01 13:30N 45°51' W 085°02'612.0
2017-Dec-01 13:00N 45°52' W 085°10'612.2
2017-Dec-01 12:30N 45°53' W 085°19'1 2.7
2017-Dec-01 12:00N 45°52' W 085°21'611.8
2017-Dec-01 11:30N 45°51' W 085°12'711.9
2017-Dec-01 10:56N 45°51' W 085°03'612.0
2017-Dec-01 10:27N 45°50' W 084°55'50 2.2
2017-Nov-30 11:46N 45°46' W 083°43'311.8
2017-Nov-30 11:30N 45°43' W 083°40'611.6
2017-Nov-30 11:00N 45°39' W 083°36'611.6
2017-Nov-30 10:30N 45°34' W 083°31'611.8
2017-Nov-30 10:00N 45°29' W 083°26'  
2017-Nov-27 10:02N 45°22' W 083°20'111.5
2017-Nov-27 09:58N 45°23' W 083°21'611.5
2017-Nov-27 09:28N 45°27' W 083°26'511.4
2017-Nov-27 09:00N 45°31' W 083°32'611.3
2017-Nov-27 08:30N 45°35' W 083°38'611.2
2017-Nov-27 08:00N 45°38' W 083°44'611.3
2017-Nov-27 07:29N 45°42' W 083°50'9 0.6
2017-Nov-26 17:12N 45°45' W 083°37'  
Track history (hours):
 
Tides and Currents Weather Stations Pressure Air Temp Water Temp Dewpoint Dewpoint Depression Visibility Wind Speed Wind Dir Waves Ship Positions

Cuyahoga

Last reported at 2017-Dec-02 06:08 UTC. Time now 2018-Feb-18 18:24 UTC.
Position N 45°19' W 083°18'.
Warning: this ship's position is months out of date.

Length 189 m; draft 6.6 m.

Type: Cargo ship. MMSI: 316004910.

Date/timePositionNaut miles runAvg speedWind from/ knotsBaromVisibWave heightAir tempDewpointWater temp
2017-Dec-02 06:08N 45°19' W 083°18'211.2
2017-Dec-02 05:58N 45°21' W 083°19'511.3
2017-Dec-02 05:30N 45°24' W 083°25'611.3
2017-Dec-02 05:00N 45°28' W 083°31'611.2
2017-Dec-02 04:30N 45°32' W 083°37'611.2
2017-Dec-02 04:00N 45°36' W 083°43'611.2
2017-Dec-02 03:30N 45°39' W 083°49'27 2.9
2017-Dec-01 18:01N 45°59' W 084°16'0 0.0
2017-Dec-01 18:00N 45°59' W 084°16'10 4.6
2017-Dec-01 15:46N 45°51' W 084°25'311.9
2017-Dec-01 15:30N 45°51' W 084°30'611.0
2017-Dec-01 15:00N 45°50' W 084°38'510.6
2017-Dec-01 14:30N 45°49' W 084°45'611.7
2017-Dec-01 14:00N 45°50' W 084°53'612.0
2017-Dec-01 13:30N 45°51' W 085°02'612.0
2017-Dec-01 13:00N 45°52' W 085°10'612.2
2017-Dec-01 12:30N 45°53' W 085°19'1 2.7
2017-Dec-01 12:00N 45°52' W 085°21'611.8
2017-Dec-01 11:30N 45°51' W 085°12'711.9
2017-Dec-01 10:56N 45°51' W 085°03'612.0
2017-Dec-01 10:27N 45°50' W 084°55'50 2.2
2017-Nov-30 11:46N 45°46' W 083°43'311.8
2017-Nov-30 11:30N 45°43' W 083°40'611.6
2017-Nov-30 11:00N 45°39' W 083°36'611.6
2017-Nov-30 10:30N 45°34' W 083°31'611.8
2017-Nov-30 10:00N 45°29' W 083°26'  
2017-Nov-27 10:02N 45°22' W 083°20'111.5
2017-Nov-27 09:58N 45°23' W 083°21'611.5
2017-Nov-27 09:28N 45°27' W 083°26'511.4
2017-Nov-27 09:00N 45°31' W 083°32'611.3
2017-Nov-27 08:30N 45°35' W 083°38'611.2
2017-Nov-27 08:00N 45°38' W 083°44'611.3
2017-Nov-27 07:29N 45°42' W 083°50'9 0.6
2017-Nov-26 17:12N 45°45' W 083°37'  

Dump ship's entire track history